Time;durP1;ratioP1;P1;durP2;ratioP2;P2;SDS_P1;SDS_P2;PMS_P1;PMS_P2;Temp;Humidity;BMP_temperature;BMP_pressure;BME280_temperature;BME280_humidity;BME280_pressure;Samples;Min_cycle;Max_cycle;Signal;HPM_P1;HPM_P2
2022/10/26 00:02:09;;;;;;;4.10;1.33;;;17.20;85.60;;;;;;5076084;28;20024;-72
2022/10/26 00:04:34;;;;;;;2.40;1.15;;;17.20;85.70;;;;;;5094113;28;20028;-72
2022/10/26 00:07:00;;;;;;;5.03;1.98;;;17.20;85.80;;;;;;5075760;28;20016;-72
2022/10/26 00:09:25;;;;;;;1.77;1.02;;;17.20;85.70;;;;;;5093859;28;20401;-72
2022/10/26 00:11:51;;;;;;;1.85;1.00;;;17.20;85.70;;;;;;5075930;28;20024;-72
2022/10/26 00:14:17;;;;;;;1.67;1.00;;;17.20;85.80;;;;;;5075774;28;20496;-72
2022/10/26 00:16:42;;;;;;;5.70;1.20;;;17.20;85.80;;;;;;5058913;28;20020;-72
2022/10/26 00:19:08;;;;;;;4.20;1.30;;;17.20;85.80;;;;;;5093827;28;20033;-72
2022/10/26 00:21:34;;;;;;;2.83;1.30;;;17.20;85.80;;;;;;5075388;28;20040;-72
2022/10/26 00:23:59;;;;;;;1.45;0.90;;;17.20;85.90;;;;;;5093787;28;20024;-72
2022/10/26 00:26:25;;;;;;;2.53;0.95;;;17.20;85.90;;;;;;5075192;28;20386;-72
2022/10/26 00:28:54;;;;;;;4.18;1.42;;;17.20;85.90;;;;;;5075664;28;20481;-72
2022/10/26 00:31:20;;;;;;;2.95;1.35;;;17.20;85.90;;;;;;5075560;28;20074;-72
2022/10/26 00:33:45;;;;;;;1.95;1.25;;;17.20;86.00;;;;;;5075682;28;20403;-72
2022/10/26 00:36:15;;;;;;;3.42;1.52;;;17.20;86.00;;;;;;5075210;28;20031;-72
2022/10/26 00:38:44;;;;;;;3.72;1.40;;;17.20;85.90;;;;;;5093442;28;20115;-72
2022/10/26 00:41:21;;;;;;;2.00;1.10;;;17.20;86.00;;;;;;5093334;28;20016;-72
2022/10/26 00:43:47;;;;;;;4.05;1.42;;;17.20;86.00;;;;;;5093567;28;20047;-72
2022/10/26 00:46:15;;;;;;;6.07;1.15;;;17.20;85.90;;;;;;5093365;28;20482;-72
2022/10/26 00:48:46;;;;;;;2.78;1.10;;;17.20;86.00;;;;;;5075349;28;20016;-72
2022/10/26 00:51:22;;;;;;;5.68;1.60;;;17.30;86.10;;;;;;5075140;28;20024;-72
2022/10/26 00:53:47;;;;;;;3.33;1.35;;;17.20;86.00;;;;;;5074909;28;20031;-72
2022/10/26 00:56:13;;;;;;;4.03;1.40;;;17.20;86.10;;;;;;5075069;28;20020;-72
2022/10/26 00:58:39;;;;;;;3.42;1.30;;;17.30;86.20;;;;;;5074861;28;20028;-72
2022/10/26 01:01:04;;;;;;;2.53;0.93;;;17.20;87.20;;;;;;5075014;28;20535;-72
2022/10/26 01:03:32;;;;;;;3.80;1.23;;;17.30;86.20;;;;;;5074878;28;20398;-72
2022/10/26 01:05:57;;;;;;;4.78;1.33;;;17.20;86.20;;;;;;5075102;28;20023;-72
2022/10/26 01:08:23;;;;;;;2.13;1.17;;;17.20;86.20;;;;;;5074739;28;20109;-72
2022/10/26 01:10:49;;;;;;;3.60;1.20;;;17.20;86.30;;;;;;5074783;28;20020;-71
2022/10/26 01:13:14;;;;;;;4.35;1.27;;;17.30;86.30;;;;;;5057968;28;20028;-71
2022/10/26 01:15:55;;;;;;;1.60;1.00;;;17.30;86.40;;;;;;5074755;28;20024;-72
2022/10/26 01:18:51;;;;;;;3.15;1.13;;;17.30;86.40;;;;;;5092732;28;20031;-72
2022/10/26 01:21:39;;;;;;;2.35;1.02;;;17.30;86.40;;;;;;5074551;28;20132;-72
2022/10/26 01:24:08;;;;;;;2.58;1.05;;;17.30;86.50;;;;;;5092160;28;20043;-72
2022/10/26 01:26:58;;;;;;;2.63;0.90;;;17.30;86.50;;;;;;5092790;28;20057;-72
2022/10/26 01:29:30;;;;;;;3.10;0.98;;;17.30;86.50;;;;;;5057762;28;20048;-72
2022/10/26 01:32:11;;;;;;;3.53;1.40;;;17.30;86.60;;;;;;5092794;28;20054;-72
2022/10/26 01:35:02;;;;;;;4.00;1.23;;;17.30;86.50;;;;;;5074524;28;20016;-72
2022/10/26 01:37:29;;;;;;;3.13;0.93;;;17.30;86.50;;;;;;5075678;28;20040;-72
2022/10/26 01:40:23;;;;;;;2.38;1.20;;;17.30;86.60;;;;;;5074683;28;20406;-72
2022/10/26 01:42:51;;;;;;;4.20;1.60;;;17.30;86.60;;;;;;5030276;28;20117;-72
2022/10/26 01:45:17;;;;;;;3.20;0.98;;;17.30;86.60;;;;;;5030207;28;20056;-72
2022/10/26 01:47:42;;;;;;;4.72;1.13;;;17.30;86.60;;;;;;5013567;28;20515;-72
2022/10/26 01:50:08;;;;;;;2.10;1.00;;;17.30;86.60;;;;;;5013578;28;20129;-72
2022/10/26 01:52:34;;;;;;;7.70;1.50;;;17.30;86.60;;;;;;5030064;28;20076;-72
2022/10/26 01:55:06;;;;;;;3.55;1.20;;;17.30;86.70;;;;;;5030245;28;20056;-72
2022/10/26 01:57:33;;;;;;;3.70;1.00;;;17.30;86.70;;;;;;5029814;28;20026;-72
2022/10/26 02:00:10;;;;;;;2.28;1.23;;;17.30;86.60;;;;;;5013556;28;20582;-72
2022/10/26 02:03:11;;;;;;;2.13;1.10;;;17.30;86.60;;;;;;5030063;28;20104;-72
2022/10/26 02:05:44;;;;;;;5.03;1.35;;;17.30;86.60;;;;;;4971140;28;20616;-72
2022/10/26 02:08:12;;;;;;;;;;;17.30;86.70;;;;;;4971486;28;20485;-72
2022/10/26 02:11:17;;;;;;;5.43;1.48;;;17.30;86.70;;;;;;4971188;28;19906;-72
2022/10/26 02:13:47;;;;;;;4.05;1.30;;;17.30;86.80;;;;;;4971231;28;20043;-72
2022/10/26 02:16:20;;;;;;;6.57;1.33;;;17.30;86.80;;;;;;4971292;28;20144;-72
2022/10/26 02:18:53;;;;;;;3.78;1.35;;;17.30;86.80;;;;;;4973834;28;20031;-72
2022/10/26 02:21:21;;;;;;;4.63;1.25;;;17.30;86.80;;;;;;5009770;28;20416;-72
2022/10/26 02:23:47;;;;;;;2.95;1.00;;;17.30;86.90;;;;;;5012160;28;20033;-72
2022/10/26 02:26:14;;;;;;;4.50;1.10;;;17.30;86.80;;;;;;4981394;28;20117;-72
2022/10/26 02:28:42;;;;;;;3.20;1.40;;;17.30;86.80;;;;;;4981319;28;20041;-72
2022/10/26 02:31:08;;;;;;;2.83;1.13;;;17.30;86.90;;;;;;4981632;28;20143;-72
2022/10/26 02:33:36;;;;;;;4.35;1.17;;;17.30;86.90;;;;;;4981201;28;20026;-72
2022/10/26 02:36:03;;;;;;;4.07;1.13;;;17.30;87.00;;;;;;4997181;28;20069;-72
2022/10/26 02:38:29;;;;;;;4.45;1.45;;;17.30;86.90;;;;;;4981143;28;20488;-72
2022/10/26 02:40:54;;;;;;;3.92;1.10;;;17.30;87.00;;;;;;4986783;28;20073;-72
2022/10/26 02:43:21;;;;;;;3.70;1.10;;;17.30;87.00;;;;;;5040958;28;20020;-72
2022/10/26 02:45:50;;;;;;;3.60;1.45;;;17.30;87.00;;;;;;5041455;28;20032;-72
2022/10/26 02:48:15;;;;;;;4.18;1.40;;;17.40;87.10;;;;;;5057504;28;20089;-72
2022/10/26 02:51:05;;;;;;;5.47;0.75;;;17.40;87.10;;;;;;5074980;28;20024;-72
2022/10/26 02:53:43;;;;;;;2.78;1.00;;;17.40;87.20;;;;;;5057446;28;20086;-72
2022/10/26 02:56:21;;;;;;;4.90;1.10;;;17.40;87.20;;;;;;5075412;28;20024;-72
2022/10/26 02:58:49;;;;;;;1.63;0.90;;;17.40;87.20;;;;;;5061204;28;20027;-71
2022/10/26 03:01:15;;;;;;;3.08;1.08;;;17.40;87.30;;;;;;5057698;28;20115;-72
2022/10/26 03:03:40;;;;;;;6.90;1.42;;;17.40;87.30;;;;;;5057640;28;20104;-71
2022/10/26 03:06:06;;;;;;;4.55;1.60;;;17.40;87.30;;;;;;5075574;28;20044;-72
2022/10/26 03:08:32;;;;;;;3.28;1.20;;;17.40;87.30;;;;;;5057716;28;20029;-72
2022/10/26 03:10:57;;;;;;;5.55;1.33;;;17.40;87.40;;;;;;5057519;28;20452;-72
2022/10/26 03:13:23;;;;;;;4.63;1.08;;;17.40;87.30;;;;;;5071736;28;20557;-72
2022/10/26 03:15:48;;;;;;;4.55;1.27;;;17.40;87.40;;;;;;5095450;28;20040;-72
2022/10/26 03:18:14;;;;;;;3.33;1.15;;;17.40;87.40;;;;;;5077552;28;20405;-72
2022/10/26 03:20:43;;;;;;;6.05;1.33;;;17.40;87.30;;;;;;5076555;28;20395;-72
2022/10/26 03:23:09;;;;;;;3.88;0.95;;;17.40;87.40;;;;;;5072082;28;20028;-72
2022/10/26 03:25:35;;;;;;;3.53;1.15;;;17.40;87.30;;;;;;5095471;28;20051;-72
2022/10/26 03:28:01;;;;;;;3.40;0.95;;;17.40;87.30;;;;;;5095322;28;20474;-72
2022/10/26 03:30:27;;;;;;;3.13;0.98;;;17.40;87.30;;;;;;5094190;28;20066;-72
2022/10/26 03:32:53;;;;;;;3.05;1.00;;;17.40;87.40;;;;;;5094215;28;20423;-72
2022/10/26 03:35:19;;;;;;;4.13;1.20;;;17.40;87.50;;;;;;5092518;28;20028;-72
2022/10/26 03:37:44;;;;;;;2.55;0.98;;;17.40;87.30;;;;;;5076982;28;20024;-72
2022/10/26 03:40:10;;;;;;;2.47;1.10;;;17.40;87.30;;;;;;5093970;28;20028;-72
2022/10/26 03:42:36;;;;;;;2.05;0.98;;;17.40;87.30;;;;;;5093899;28;20460;-72
2022/10/26 03:45:02;;;;;;;4.60;1.08;;;17.40;87.30;;;;;;5094035;28;20032;-72
2022/10/26 03:47:28;;;;;;;2.58;0.93;;;17.40;87.30;;;;;;5077065;28;20024;-72
2022/10/26 03:49:53;;;;;;;8.25;1.20;;;17.40;87.40;;;;;;5094873;28;20034;-72
2022/10/26 03:52:19;;;;;;;4.20;1.20;;;17.40;87.40;;;;;;5095078;28;20024;-72
2022/10/26 03:54:44;;;;;;;4.47;0.90;;;17.40;87.40;;;;;;5094872;28;20129;-72
2022/10/26 03:57:10;;;;;;;2.15;1.08;;;17.40;87.30;;;;;;5076750;28;20415;-72
2022/10/26 03:59:36;;;;;;;1.80;0.82;;;17.40;87.30;;;;;;5076805;28;20077;-72
2022/10/26 04:02:02;;;;;;;2.92;1.20;;;17.40;87.30;;;;;;5094656;28;20073;-72
2022/10/26 04:04:27;;;;;;;4.40;1.67;;;17.40;87.30;;;;;;5076587;28;20504;-72
2022/10/26 04:06:53;;;;;;;3.28;1.02;;;17.40;87.30;;;;;;5094627;28;20027;-72
2022/10/26 04:09:18;;;;;;;3.15;1.00;;;17.40;87.30;;;;;;5094688;28;20024;-72
2022/10/26 04:11:44;;;;;;;2.80;1.00;;;17.40;87.30;;;;;;5059702;28;20034;-72
2022/10/26 04:14:10;;;;;;;5.53;1.38;;;17.40;87.30;;;;;;5094586;28;20434;-72
2022/10/26 04:16:35;;;;;;;3.85;1.20;;;17.40;87.30;;;;;;5093698;28;20554;-72
2022/10/26 04:19:01;;;;;;;5.68;1.08;;;17.40;87.30;;;;;;5075857;28;20028;-72
2022/10/26 04:21:27;;;;;;;3.40;1.00;;;17.50;87.50;;;;;;5093439;28;20067;-72
2022/10/26 04:23:52;;;;;;;3.65;1.02;;;17.40;87.40;;;;;;5093772;28;20424;-72
2022/10/26 04:26:18;;;;;;;3.05;0.90;;;17.40;87.30;;;;;;5076047;28;20495;-72
2022/10/26 04:28:43;;;;;;;3.45;1.10;;;17.40;87.30;;;;;;5094365;28;20024;-72
2022/10/26 04:31:09;;;;;;;3.08;1.13;;;17.50;88.40;;;;;;5075492;28;20032;-72
2022/10/26 04:33:35;;;;;;;2.55;0.90;;;17.40;87.30;;;;;;5075629;28;20072;-72
2022/10/26 04:36:00;;;;;;;2.08;1.00;;;17.40;87.30;;;;;;5075897;28;20020;-72
2022/10/26 04:38:26;;;;;;;1.60;0.80;;;17.40;87.30;;;;;;5075765;28;20481;-72
2022/10/26 04:40:52;;;;;;;3.78;1.10;;;17.40;87.30;;;;;;5076005;28;20035;-72
2022/10/26 04:43:17;;;;;;;2.83;0.80;;;17.40;87.30;;;;;;5076041;28;20028;-72
2022/10/26 04:45:43;;;;;;;2.72;1.10;;;17.50;87.40;;;;;;5075260;28;20107;-72
2022/10/26 04:48:10;;;;;;;2.65;1.00;;;17.40;87.30;;;;;;5075774;28;20110;-72
2022/10/26 04:50:36;;;;;;;1.58;0.82;;;17.50;87.40;;;;;;5075699;28;20111;-72
2022/10/26 04:53:02;;;;;;;2.65;1.20;;;17.50;87.40;;;;;;5059052;28;20127;-72
2022/10/26 04:55:27;;;;;;;4.50;1.60;;;17.50;87.40;;;;;;5093995;28;20456;-72
2022/10/26 04:57:53;;;;;;;4.68;1.10;;;17.50;87.40;;;;;;5093469;28;20028;-72
2022/10/26 05:00:18;;;;;;;2.55;1.13;;;17.50;87.40;;;;;;5075524;28;20024;-72
2022/10/26 05:02:44;;;;;;;4.40;1.30;;;17.50;87.40;;;;;;5058961;28;20024;-72
2022/10/26 05:05:10;;;;;;;2.97;1.17;;;17.50;87.40;;;;;;5075805;28;20028;-72
2022/10/26 05:07:35;;;;;;;2.33;0.93;;;17.50;87.40;;;;;;5075496;28;20036;-72
2022/10/26 05:10:01;;;;;;;2.13;1.00;;;17.50;87.40;;;;;;5074054;28;20020;-72
2022/10/26 05:12:27;;;;;;;2.58;0.90;;;17.50;87.40;;;;;;5092760;28;20513;-72
2022/10/26 05:14:57;;;;;;;8.30;1.20;;;17.50;87.40;;;;;;5074795;28;20063;-72
2022/10/26 05:17:26;;;;;;;3.15;1.17;;;17.50;87.40;;;;;;5092784;28;20031;-72
2022/10/26 05:19:54;;;;;;;3.33;1.08;;;17.50;87.40;;;;;;5058309;28;20044;-72
2022/10/26 05:22:26;;;;;;;3.38;1.27;;;17.50;87.50;;;;;;5092431;28;20032;-72
2022/10/26 05:24:51;;;;;;;1.73;0.80;;;17.50;87.50;;;;;;5091557;28;20062;-72
2022/10/26 05:27:17;;;;;;;4.82;1.20;;;17.50;87.50;;;;;;5092849;28;20477;-72
2022/10/26 05:29:42;;;;;;;2.72;0.77;;;17.50;87.50;;;;;;5077539;28;20028;-72
2022/10/26 05:32:08;;;;;;;1.55;0.88;;;17.50;87.50;;;;;;5092818;28;20069;-72
2022/10/26 05:34:34;;;;;;;4.15;1.23;;;17.50;87.60;;;;;;5092635;28;20526;-72
2022/10/26 05:36:59;;;;;;;3.00;0.73;;;17.50;87.50;;;;;;5057113;28;20449;-71
2022/10/26 05:39:25;;;;;;;8.10;1.15;;;17.50;87.50;;;;;;5092814;28;20048;-72
2022/10/26 05:41:51;;;;;;;3.50;1.15;;;17.50;87.60;;;;;;5075161;28;20106;-72
2022/10/26 05:44:16;;;;;;;8.93;1.60;;;17.50;87.50;;;;;;5074678;28;20032;-72
2022/10/26 05:46:42;;;;;;;3.95;1.10;;;17.50;87.50;;;;;;5093107;28;20048;-72
2022/10/26 05:49:07;;;;;;;6.25;1.00;;;17.50;87.50;;;;;;5093085;28;20048;-72
2022/10/26 05:51:36;;;;;;;2.78;0.80;;;17.50;87.50;;;;;;5093169;28;20098;-72
2022/10/26 05:54:01;;;;;;;7.13;1.55;;;17.50;87.50;;;;;;5074072;28;20038;-72
2022/10/26 05:56:38;;;;;;;3.95;0.98;;;17.50;86.60;;;;;;5072583;28;20020;-73
2022/10/26 05:59:09;;;;;;;4.00;1.15;;;17.50;86.30;;;;;;5058511;28;20612;-73
2022/10/26 06:01:50;;;;;;;5.05;1.10;;;17.50;86.30;;;;;;5060599;28;20603;-73
2022/10/26 06:04:16;;;;;;;4.80;1.00;;;17.40;86.90;;;;;;5094722;28;20028;-73
2022/10/26 06:06:44;;;;;;;10.30;1.40;;;17.50;85.70;;;;;;5094615;28;20024;-73
2022/10/26 06:09:16;;;;;;;6.72;1.38;;;17.50;85.80;;;;;;5059997;28;20036;-73
2022/10/26 06:11:41;;;;;;;7.18;1.15;;;17.50;85.60;;;;;;5094657;28;20095;-73
2022/10/26 06:14:08;;;;;;;5.60;1.20;;;17.50;85.70;;;;;;5076541;28;20036;-73
2022/10/26 06:16:49;;;;;;;5.70;1.23;;;17.40;85.60;;;;;;5059907;28;20028;-73
2022/10/26 06:19:21;;;;;;;6.53;1.40;;;17.40;85.40;;;;;;5076215;28;20097;-74
2022/10/26 06:22:20;;;;;;;6.82;1.30;;;17.40;85.50;;;;;;5095264;28;20069;-73
2022/10/26 06:24:48;;;;;;;5.88;1.40;;;17.40;85.40;;;;;;5080540;28;20551;-73
2022/10/26 06:27:35;;;;;;;7.30;1.40;;;17.40;85.50;;;;;;5095852;28;20024;-73
2022/10/26 06:30:04;;;;;;;6.10;1.50;;;17.40;85.30;;;;;;5095941;28;20397;-73
2022/10/26 06:32:30;;;;;;;10.38;1.35;;;17.40;85.50;;;;;;5077255;28;20032;-73
2022/10/26 06:35:14;;;;;;;8.82;1.42;;;17.40;85.30;;;;;;5076217;28;20093;-73
2022/10/26 06:37:41;;;;;;;8.32;1.10;;;17.40;85.20;;;;;;5076177;28;20055;-73
2022/10/26 06:40:08;;;;;;;6.07;1.52;;;17.40;85.20;;;;;;5076245;28;20016;-73
2022/10/26 06:42:34;;;;;;;3.30;1.17;;;17.40;85.10;;;;;;5076354;28;20020;-73
2022/10/26 06:44:59;;;;;;;4.13;0.88;;;17.40;85.30;;;;;;5090073;28;20452;-73
2022/10/26 06:47:48;;;;;;;5.78;1.48;;;17.40;85.20;;;;;;5078527;28;20030;-73
2022/10/26 06:50:37;;;;;;;26.00;2.97;;;17.40;85.20;;;;;;5072577;28;20032;-73
2022/10/26 06:53:24;;;;;;;16.35;2.28;;;17.40;85.30;;;;;;5072225;28;20029;-73
2022/10/26 06:55:50;;;;;;;15.40;2.38;;;17.40;85.30;;;;;;5072286;28;20027;-73
2022/10/26 06:58:20;;;;;;;19.83;3.00;;;17.40;85.40;;;;;;5072422;28;20036;-73
2022/10/26 07:00:50;;;;;;;12.93;2.53;;;17.40;85.50;;;;;;5072631;28;20046;-73
2022/10/26 07:03:16;;;;;;;19.58;2.72;;;17.40;85.50;;;;;;5072556;28;20121;-73
2022/10/26 07:05:42;;;;;;;15.90;2.63;;;17.40;85.50;;;;;;5073455;28;20498;-73
2022/10/26 07:08:08;;;;;;;18.27;3.20;;;17.40;85.50;;;;;;5073757;28;20033;-73
2022/10/26 07:10:37;;;;;;;24.58;3.65;;;17.40;85.50;;;;;;5074300;28;20367;-73
2022/10/26 07:13:04;;;;;;;11.60;3.10;;;17.40;85.50;;;;;;5072643;28;20031;-73
2022/10/26 07:15:29;;;;;;;19.08;3.42;;;17.40;85.50;;;;;;5073744;28;20031;-73
2022/10/26 07:17:55;;;;;;;21.70;3.30;;;17.40;85.60;;;;;;5074883;28;20472;-73
2022/10/26 07:20:21;;;;;;;24.60;3.75;;;17.40;85.60;;;;;;5074504;28;20561;-73
2022/10/26 07:22:53;;;;;;;19.75;3.22;;;17.40;85.60;;;;;;5076781;28;20039;-72
2022/10/26 07:25:19;;;;;;;;;;;17.40;85.60;;;;;;5095198;28;20120;-73
2022/10/26 07:27:44;;;;;;;19.85;3.92;;;17.40;85.60;;;;;;5094919;28;20396;-73
2022/10/26 07:30:10;;;;;;;19.67;3.58;;;17.40;85.60;;;;;;5094749;28;20035;-73
2022/10/26 07:32:36;;;;;;;14.88;3.20;;;17.40;85.60;;;;;;5076790;28;20108;-73
2022/10/26 07:35:02;;;;;;;17.30;3.83;;;17.40;85.60;;;;;;5076623;28;20034;-73
2022/10/26 07:37:27;;;;;;;14.10;3.28;;;17.40;85.60;;;;;;5076600;28;20024;-73
2022/10/26 07:39:53;;;;;;;9.70;2.88;;;17.40;85.60;;;;;;5076536;28;20028;-73
2022/10/26 07:42:18;;;;;;;13.05;2.55;;;17.30;85.50;;;;;;5076374;28;20024;-73
2022/10/26 07:44:44;;;;;;;21.90;4.90;;;17.40;85.50;;;;;;5076306;28;20476;-73
2022/10/26 07:47:10;;;;;;;22.75;3.67;;;17.40;85.50;;;;;;5076647;28;20103;-73
2022/10/26 07:49:35;;;;;;;18.08;3.55;;;17.40;85.40;;;;;;5076319;28;20038;-73
2022/10/26 07:52:01;;;;;;;17.65;3.40;;;17.40;85.40;;;;;;5094305;28;20020;-73
2022/10/26 07:54:27;;;;;;;14.88;3.42;;;17.40;85.40;;;;;;5094066;28;20028;-73
2022/10/26 07:56:52;;;;;;;14.73;3.38;;;17.40;85.40;;;;;;5076168;28;20085;-73
2022/10/26 07:59:18;;;;;;;17.08;3.13;;;17.40;85.40;;;;;;5076241;28;20511;-73
2022/10/26 08:01:43;;;;;;;17.23;3.50;;;17.30;85.30;;;;;;5094198;28;20031;-73
2022/10/26 08:04:09;;;;;;;13.50;2.83;;;17.40;85.30;;;;;;5076120;28;20035;-73
2022/10/26 08:06:35;;;;;;;17.90;3.85;;;17.30;85.20;;;;;;5094194;28;20028;-73
2022/10/26 08:09:00;;;;;;;14.10;2.42;;;17.30;85.20;;;;;;5075648;28;20062;-73
2022/10/26 08:11:26;;;;;;;19.15;2.90;;;17.40;85.30;;;;;;5094100;28;20039;-73
2022/10/26 08:13:52;;;;;;;18.52;2.92;;;17.40;85.30;;;;;;5094065;28;20073;-73
2022/10/26 08:16:18;;;;;;;16.55;3.03;;;17.30;86.20;;;;;;5075938;28;20020;-73
2022/10/26 08:18:46;;;;;;;12.00;2.38;;;17.30;85.10;;;;;;5075689;28;20035;-73
2022/10/26 08:21:12;;;;;;;15.35;2.83;;;17.40;85.30;;;;;;5092857;28;20036;-73
2022/10/26 08:23:37;;;;;;;14.52;3.05;;;17.30;85.20;;;;;;5075306;28;20070;-73
2022/10/26 08:26:03;;;;;;;15.75;2.65;;;17.30;85.20;;;;;;5093623;28;20028;-73
2022/10/26 08:28:29;;;;;;;17.23;3.03;;;17.30;85.20;;;;;;5075913;28;20389;-73
2022/10/26 08:30:55;;;;;;;14.98;3.08;;;17.30;85.20;;;;;;5075352;28;20024;-73
2022/10/26 08:33:21;;;;;;;14.07;2.80;;;17.30;85.20;;;;;;5075389;28;20032;-73
2022/10/26 08:35:46;;;;;;;12.43;2.45;;;17.30;85.20;;;;;;5093614;28;20056;-73
2022/10/26 08:38:12;;;;;;;17.48;3.05;;;17.30;85.20;;;;;;5074991;28;20020;-73
2022/10/26 08:40:40;;;;;;;11.93;2.63;;;17.30;85.20;;;;;;5075493;28;20020;-73
2022/10/26 08:43:15;;;;;;;13.07;3.22;;;17.30;85.20;;;;;;5058554;28;20024;-73
2022/10/26 08:45:51;;;;;;;11.20;2.17;;;17.30;85.10;;;;;;5075234;28;20037;-73
2022/10/26 08:48:19;;;;;;;10.82;2.55;;;17.30;85.10;;;;;;5075227;28;20020;-73
2022/10/26 08:50:52;;;;;;;15.57;2.90;;;17.30;85.10;;;;;;5075232;28;20020;-73
2022/10/26 08:53:31;;;;;;;14.48;2.83;;;17.30;85.10;;;;;;5093069;28;20098;-73
2022/10/26 08:56:17;;;;;;;8.55;2.28;;;17.30;85.10;;;;;;5075023;28;20111;-73
2022/10/26 08:58:48;;;;;;;11.57;3.10;;;17.30;85.10;;;;;;5058120;28;20467;-73
2022/10/26 09:01:15;;;;;;;11.57;2.75;;;17.30;85.10;;;;;;5075224;28;20504;-73
2022/10/26 09:03:40;;;;;;;14.88;2.63;;;17.30;85.10;;;;;;5074926;28;20028;-73
2022/10/26 09:06:12;;;;;;;15.90;2.78;;;17.30;85.20;;;;;;5058034;28;20446;-73
2022/10/26 09:09:13;;;;;;;18.23;2.45;;;17.30;85.10;;;;;;5074744;28;20393;-73
2022/10/26 09:12:00;;;;;;;17.58;3.58;;;17.30;85.10;;;;;;5077118;28;20808;-73
2022/10/26 09:14:44;;;;;;;16.73;2.47;;;17.30;85.10;;;;;;5092872;28;20103;-73
2022/10/26 09:17:35;;;;;;;14.30;2.83;;;17.30;85.20;;;;;;5092693;28;20058;-73
2022/10/26 09:20:19;;;;;;;11.65;2.22;;;17.30;85.20;;;;;;5087451;28;20116;-73
2022/10/26 09:22:53;;;;;;;9.30;2.40;;;17.30;85.20;;;;;;5074550;28;20034;-73
2022/10/26 09:25:23;;;;;;;12.90;2.67;;;17.30;85.20;;;;;;5074679;28;20024;-73
2022/10/26 09:27:56;;;;;;;9.52;2.53;;;17.30;85.20;;;;;;5057812;28;20027;-73
2022/10/26 09:30:22;;;;;;;7.75;2.05;;;17.30;85.20;;;;;;5074667;28;20031;-73
2022/10/26 09:32:49;;;;;;;11.88;2.55;;;17.30;85.20;;;;;;5074568;28;20031;-73
2022/10/26 09:35:19;;;;;;;10.23;2.30;;;17.30;85.20;;;;;;5074507;28;20028;-73
2022/10/26 09:37:53;;;;;;;9.15;2.92;;;17.30;85.20;;;;;;5074227;28;20028;-73
2022/10/26 09:40:35;;;;;;;10.60;2.60;;;17.30;85.20;;;;;;5074733;28;20069;-73
2022/10/26 09:43:14;;;;;;;5.60;1.63;;;17.30;85.20;;;;;;5074499;28;20035;-73
2022/10/26 09:45:50;;;;;;;10.23;2.47;;;17.30;85.20;;;;;;5074370;28;20120;-73
2022/10/26 09:48:24;;;;;;;13.43;2.08;;;17.30;85.10;;;;;;5074415;28;20036;-73
2022/10/26 09:50:51;;;;;;;10.60;2.83;;;17.30;85.20;;;;;;5074305;28;20016;-73
2022/10/26 09:53:17;;;;;;;12.27;2.40;;;17.30;86.20;;;;;;5074643;28;20036;-73
2022/10/26 09:55:47;;;;;;;11.35;2.58;;;17.30;85.20;;;;;;5074449;28;20028;-73
2022/10/26 09:58:20;;;;;;;7.38;2.80;;;17.30;85.30;;;;;;5074186;28;20034;-73
2022/10/26 10:00:46;;;;;;;9.90;2.72;;;17.30;85.20;;;;;;5074342;28;20108;-73
2022/10/26 10:03:29;;;;;;;8.93;2.90;;;17.30;85.20;;;;;;5092169;28;20103;-73
2022/10/26 10:06:17;;;;;;;10.20;2.30;;;17.20;85.20;;;;;;5074253;28;20035;-73
2022/10/26 10:08:45;;;;;;;13.15;2.25;;;17.20;85.20;;;;;;5074167;28;20492;-73
2022/10/26 10:11:12;;;;;;;9.13;2.30;;;17.30;85.30;;;;;;5074519;28;20515;-73
2022/10/26 10:13:39;;;;;;;15.40;3.17;;;17.20;85.20;;;;;;5074257;28;20020;-73
2022/10/26 10:16:23;;;;;;;11.88;2.30;;;17.30;85.30;;;;;;5074070;28;20024;-73
2022/10/26 10:18:56;;;;;;;11.43;3.05;;;17.20;85.20;;;;;;5074019;28;20049;-73
2022/10/26 10:21:47;;;;;;;10.48;2.83;;;17.30;85.30;;;;;;5073957;28;20047;-73
2022/10/26 10:24:29;;;;;;;10.90;2.30;;;17.30;85.30;;;;;;5073861;28;20487;-73
2022/10/26 10:26:56;;;;;;;13.35;3.08;;;17.20;85.20;;;;;;5074307;28;20405;-73
2022/10/26 10:29:25;;;;;;;11.35;2.20;;;17.20;85.20;;;;;;5091969;28;20020;-73
2022/10/26 10:31:58;;;;;;;10.70;2.40;;;17.20;85.30;;;;;;5074198;28;20024;-73
2022/10/26 10:34:24;;;;;;;9.60;2.50;;;17.20;85.20;;;;;;5073682;28;20031;-73
2022/10/26 10:36:50;;;;;;;10.68;2.75;;;17.30;85.30;;;;;;5074123;28;20390;-73
2022/10/26 10:39:36;;;;;;;9.52;2.00;;;17.20;85.20;;;;;;5073867;28;20024;-73
2022/10/26 10:42:03;;;;;;;9.27;2.28;;;17.30;85.30;;;;;;5057953;28;20012;-73
2022/10/26 10:44:30;;;;;;;8.07;2.42;;;17.20;85.20;;;;;;5058636;28;20052;-73
2022/10/26 10:47:00;;;;;;;9.00;2.47;;;17.20;85.20;;;;;;5077768;28;20027;-73
2022/10/26 10:49:26;;;;;;;9.80;2.35;;;17.20;85.20;;;;;;5077248;28;20016;-73
2022/10/26 10:51:52;;;;;;;8.32;2.10;;;17.30;85.30;;;;;;5077662;28;20141;-73
2022/10/26 10:54:38;;;;;;;14.75;3.30;;;17.30;85.30;;;;;;5077298;28;20031;-73
2022/10/26 10:57:14;;;;;;;7.88;2.15;;;17.20;85.20;;;;;;5060004;28;20036;-73
2022/10/26 11:00:05;;;;;;;7.43;2.55;;;17.20;85.30;;;;;;5077312;28;20013;-73
2022/10/26 11:02:52;;;;;;;8.43;1.90;;;17.30;85.20;;;;;;5094966;28;20020;-73
2022/10/26 11:05:22;;;;;;;8.57;2.38;;;17.20;85.20;;;;;;5077121;28;20020;-73
2022/10/26 11:08:04;;;;;;;12.60;2.63;;;17.20;85.20;;;;;;5077371;28;20051;-73
2022/10/26 11:10:34;;;;;;;8.63;2.17;;;17.20;85.20;;;;;;5077928;28;20059;-73
2022/10/26 11:13:02;;;;;;;11.70;2.50;;;17.20;85.30;;;;;;5077199;28;20036;-73
2022/10/26 11:15:30;;;;;;;14.13;2.35;;;17.20;85.20;;;;;;5076984;28;20020;-73
2022/10/26 11:18:03;;;;;;;10.50;2.55;;;17.30;85.30;;;;;;5076898;28;20065;-73
2022/10/26 11:20:29;;;;;;;8.57;2.75;;;17.20;85.30;;;;;;5076677;28;20043;-73
2022/10/26 11:22:58;;;;;;;8.70;2.05;;;17.20;85.30;;;;;;5076817;28;20036;-73
2022/10/26 11:25:27;;;;;;;9.38;1.95;;;17.20;85.40;;;;;;5076841;28;20119;-73
2022/10/26 11:27:58;;;;;;;7.93;1.83;;;17.20;85.30;;;;;;5060262;28;20058;-73
2022/10/26 11:30:24;;;;;;;10.75;2.05;;;17.20;85.30;;;;;;5076876;28;20397;-73
2022/10/26 11:32:54;;;;;;;10.82;2.35;;;17.30;85.30;;;;;;5076561;28;20024;-73
2022/10/26 11:35:25;;;;;;;10.02;2.20;;;17.30;85.40;;;;;;5076580;28;20052;-73
2022/10/26 11:37:52;;;;;;;7.13;2.00;;;17.20;85.20;;;;;;5077091;28;20486;-73
2022/10/26 11:40:21;;;;;;;11.07;2.13;;;17.20;85.20;;;;;;5076564;28;20111;-73
2022/10/26 11:42:56;;;;;;;9.63;2.45;;;17.30;85.30;;;;;;5076439;28;20497;-73
2022/10/26 11:45:24;;;;;;;9.95;2.35;;;17.30;85.30;;;;;;5059754;28;20020;-73
2022/10/26 11:48:10;;;;;;;11.35;2.42;;;17.20;85.20;;;;;;5076349;28;20073;-73
2022/10/26 11:50:38;;;;;;;11.32;2.38;;;17.20;85.20;;;;;;5086967;28;20040;-73
2022/10/26 11:53:13;;;;;;;13.07;2.55;;;17.30;85.30;;;;;;5076815;28;20189;-73
2022/10/26 11:55:39;;;;;;;8.70;2.15;;;17.20;85.20;;;;;;5058493;28;20480;-73
2022/10/26 11:58:05;;;;;;;9.77;2.10;;;17.20;85.20;;;;;;5059210;28;20106;-73
2022/10/26 12:00:30;;;;;;;6.85;1.83;;;17.30;85.30;;;;;;5076072;28;20153;-73
2022/10/26 12:03:01;;;;;;;8.00;1.80;;;17.20;85.20;;;;;;5076213;28;20031;-73
2022/10/26 12:05:38;;;;;;;10.68;2.35;;;17.20;85.20;;;;;;5076138;28;20021;-73
2022/10/26 12:08:35;;;;;;;13.52;2.13;;;17.30;85.40;;;;;;5075807;28;20024;-73
2022/10/26 12:11:31;;;;;;;8.15;2.03;;;17.20;85.20;;;;;;5075898;28;20023;-73
2022/10/26 12:14:00;;;;;;;10.48;2.05;;;17.30;85.40;;;;;;5075991;28;20451;-73
2022/10/26 12:16:41;;;;;;;9.57;2.17;;;17.30;85.40;;;;;;5075569;28;20023;-73
2022/10/26 12:19:13;;;;;;;10.68;2.28;;;17.30;85.40;;;;;;5093609;28;20081;-73
2022/10/26 12:21:41;;;;;;;12.15;1.85;;;17.30;85.40;;;;;;5075417;28;20131;-73
2022/10/26 12:24:24;;;;;;;8.35;2.13;;;17.30;85.40;;;;;;5076093;28;20456;-73
2022/10/26 12:26:55;;;;;;;10.02;2.53;;;17.20;85.30;;;;;;5093652;28;20024;-73
2022/10/26 12:29:24;;;;;;;13.05;2.47;;;17.30;85.40;;;;;;5075559;28;20028;-73
2022/10/26 12:31:49;;;;;;;10.10;2.15;;;17.30;85.40;;;;;;5093529;28;20028;-73
2022/10/26 12:34:22;;;;;;;11.80;3.25;;;17.30;85.40;;;;;;5075530;28;20057;-73
2022/10/26 12:36:54;;;;;;;7.75;1.77;;;17.30;85.40;;;;;;5075681;28;20073;-73
2022/10/26 12:39:40;;;;;;;7.70;2.33;;;17.30;85.40;;;;;;5075237;28;20085;-73
2022/10/26 12:42:08;;;;;;;14.95;2.45;;;17.30;85.40;;;;;;5075361;28;20051;-73
2022/10/26 12:44:44;;;;;;;6.60;1.73;;;17.30;85.40;;;;;;5093191;28;20016;-73
2022/10/26 12:47:30;;;;;;;9.45;2.05;;;17.30;85.50;;;;;;5093368;28;20048;-73
2022/10/26 12:50:08;;;;;;;9.80;2.47;;;17.30;85.50;;;;;;5093251;28;20061;-73
2022/10/26 12:52:46;;;;;;;10.80;1.88;;;17.30;85.50;;;;;;5093340;28;20031;-73
2022/10/26 12:55:11;;;;;;;8.98;2.00;;;17.30;85.50;;;;;;5093271;28;20021;-73
2022/10/26 12:57:52;;;;;;;11.82;2.00;;;17.30;85.50;;;;;;5093006;28;20077;-73
2022/10/26 13:00:24;;;;;;;10.35;2.10;;;17.30;85.50;;;;;;5075244;28;20043;-73